sensor_id;sensor_type;location;lat;lon;timestamp;P1;durP1;ratioP1;P2;durP2;ratioP2
28459;SDS011;32528;45.712;9.192;2023-04-06T00:00:54;19.02;;;10.80;;
28459;SDS011;32528;45.712;9.192;2023-04-06T00:02:55;16.15;;;9.05;;
28459;SDS011;32528;45.712;9.192;2023-04-06T00:04:56;18.50;;;9.82;;
28459;SDS011;32528;45.712;9.192;2023-04-06T00:06:57;16.73;;;9.40;;
28459;SDS011;32528;45.712;9.192;2023-04-06T00:08:57;17.83;;;9.32;;
28459;SDS011;32528;45.712;9.192;2023-04-06T00:10:59;14.68;;;9.25;;
28459;SDS011;32528;45.712;9.192;2023-04-06T00:12:59;17.23;;;10.40;;
28459;SDS011;32528;45.712;9.192;2023-04-06T00:15:00;15.02;;;9.75;;
28459;SDS011;32528;45.712;9.192;2023-04-06T00:17:01;16.60;;;8.45;;
28459;SDS011;32528;45.712;9.192;2023-04-06T00:19:02;16.75;;;9.18;;
28459;SDS011;32528;45.712;9.192;2023-04-06T00:21:03;20.20;;;10.18;;
28459;SDS011;32528;45.712;9.192;2023-04-06T00:23:05;16.90;;;8.75;;
28459;SDS011;32528;45.712;9.192;2023-04-06T00:25:06;17.25;;;8.77;;
28459;SDS011;32528;45.712;9.192;2023-04-06T00:27:08;13.60;;;7.82;;
28459;SDS011;32528;45.712;9.192;2023-04-06T00:29:08;17.10;;;9.13;;
28459;SDS011;32528;45.712;9.192;2023-04-06T00:33:10;18.65;;;9.98;;
28459;SDS011;32528;45.712;9.192;2023-04-06T00:35:11;20.98;;;9.48;;
28459;SDS011;32528;45.712;9.192;2023-04-06T00:37:11;17.33;;;8.98;;
28459;SDS011;32528;45.712;9.192;2023-04-06T00:41:13;15.68;;;7.78;;
28459;SDS011;32528;45.712;9.192;2023-04-06T00:43:15;31.45;;;11.00;;
28459;SDS011;32528;45.712;9.192;2023-04-06T00:45:15;19.17;;;9.38;;
28459;SDS011;32528;45.712;9.192;2023-04-06T00:47:16;16.00;;;9.48;;
28459;SDS011;32528;45.712;9.192;2023-04-06T00:49:17;17.98;;;9.23;;
28459;SDS011;32528;45.712;9.192;2023-04-06T00:51:18;19.08;;;8.95;;
28459;SDS011;32528;45.712;9.192;2023-04-06T00:53:19;16.20;;;9.45;;
28459;SDS011;32528;45.712;9.192;2023-04-06T00:55:20;21.30;;;9.80;;
28459;SDS011;32528;45.712;9.192;2023-04-06T00:57:21;14.93;;;8.07;;
28459;SDS011;32528;45.712;9.192;2023-04-06T00:59:27;15.35;;;8.98;;
28459;SDS011;32528;45.712;9.192;2023-04-06T01:01:29;15.95;;;9.25;;
28459;SDS011;32528;45.712;9.192;2023-04-06T01:03:36;22.10;;;9.25;;
28459;SDS011;32528;45.712;9.192;2023-04-06T01:05:38;19.60;;;9.85;;
28459;SDS011;32528;45.712;9.192;2023-04-06T01:07:46;21.58;;;9.40;;
28459;SDS011;32528;45.712;9.192;2023-04-06T01:09:54;16.15;;;9.85;;
28459;SDS011;32528;45.712;9.192;2023-04-06T01:12:00;18.85;;;9.10;;
28459;SDS011;32528;45.712;9.192;2023-04-06T01:14:04;14.93;;;8.35;;
28459;SDS011;32528;45.712;9.192;2023-04-06T01:16:20;26.13;;;9.85;;
28459;SDS011;32528;45.712;9.192;2023-04-06T01:18:40;21.98;;;9.30;;
28459;SDS011;32528;45.712;9.192;2023-04-06T01:21:02;19.85;;;8.88;;
28459;SDS011;32528;45.712;9.192;2023-04-06T01:23:03;12.70;;;8.00;;
28459;SDS011;32528;45.712;9.192;2023-04-06T01:25:05;14.70;;;7.70;;
28459;SDS011;32528;45.712;9.192;2023-04-06T01:27:14;19.52;;;9.25;;
28459;SDS011;32528;45.712;9.192;2023-04-06T01:29:34;18.67;;;9.00;;
28459;SDS011;32528;45.712;9.192;2023-04-06T01:31:39;15.68;;;8.77;;
28459;SDS011;32528;45.712;9.192;2023-04-06T01:33:40;15.48;;;8.70;;
28459;SDS011;32528;45.712;9.192;2023-04-06T01:35:44;13.65;;;8.40;;
28459;SDS011;32528;45.712;9.192;2023-04-06T01:37:54;15.10;;;8.80;;
28459;SDS011;32528;45.712;9.192;2023-04-06T01:40:02;15.90;;;9.45;;
28459;SDS011;32528;45.712;9.192;2023-04-06T01:42:15;15.05;;;8.65;;
28459;SDS011;32528;45.712;9.192;2023-04-06T01:44:16;15.35;;;8.77;;
28459;SDS011;32528;45.712;9.192;2023-04-06T01:48:25;16.42;;;7.80;;
28459;SDS011;32528;45.712;9.192;2023-04-06T01:50:26;15.30;;;7.78;;
28459;SDS011;32528;45.712;9.192;2023-04-06T01:52:28;14.10;;;7.65;;
28459;SDS011;32528;45.712;9.192;2023-04-06T01:54:29;13.25;;;7.95;;
28459;SDS011;32528;45.712;9.192;2023-04-06T01:56:48;15.70;;;7.07;;
28459;SDS011;32528;45.712;9.192;2023-04-06T01:59:26;14.75;;;9.00;;
28459;SDS011;32528;45.712;9.192;2023-04-06T02:01:27;17.25;;;6.93;;
28459;SDS011;32528;45.712;9.192;2023-04-06T02:03:30;13.80;;;7.78;;
28459;SDS011;32528;45.712;9.192;2023-04-06T02:05:39;11.98;;;6.85;;
28459;SDS011;32528;45.712;9.192;2023-04-06T02:07:51;14.20;;;8.15;;
28459;SDS011;32528;45.712;9.192;2023-04-06T02:09:58;17.50;;;7.05;;
28459;SDS011;32528;45.712;9.192;2023-04-06T02:12:07;17.63;;;8.65;;
28459;SDS011;32528;45.712;9.192;2023-04-06T02:14:08;20.25;;;7.05;;
28459;SDS011;32528;45.712;9.192;2023-04-06T02:16:15;10.82;;;7.63;;
28459;SDS011;32528;45.712;9.192;2023-04-06T02:18:17;13.20;;;7.18;;
28459;SDS011;32528;45.712;9.192;2023-04-06T02:20:18;11.02;;;7.38;;
28459;SDS011;32528;45.712;9.192;2023-04-06T02:22:19;11.70;;;7.03;;
28459;SDS011;32528;45.712;9.192;2023-04-06T02:24:20;18.90;;;7.38;;
28459;SDS011;32528;45.712;9.192;2023-04-06T02:26:21;13.38;;;7.03;;
28459;SDS011;32528;45.712;9.192;2023-04-06T02:28:22;15.02;;;7.05;;
28459;SDS011;32528;45.712;9.192;2023-04-06T02:30:22;16.80;;;6.88;;
28459;SDS011;32528;45.712;9.192;2023-04-06T02:32:23;13.65;;;7.00;;
28459;SDS011;32528;45.712;9.192;2023-04-06T02:36:26;12.00;;;6.78;;
28459;SDS011;32528;45.712;9.192;2023-04-06T02:38:26;12.55;;;7.45;;
28459;SDS011;32528;45.712;9.192;2023-04-06T02:40:27;16.30;;;7.53;;
28459;SDS011;32528;45.712;9.192;2023-04-06T02:42:31;11.95;;;6.47;;
28459;SDS011;32528;45.712;9.192;2023-04-06T02:44:33;9.75;;;6.70;;
28459;SDS011;32528;45.712;9.192;2023-04-06T02:46:35;12.18;;;6.88;;
28459;SDS011;32528;45.712;9.192;2023-04-06T02:48:37;11.77;;;7.22;;
28459;SDS011;32528;45.712;9.192;2023-04-06T02:50:38;11.25;;;7.00;;
28459;SDS011;32528;45.712;9.192;2023-04-06T02:52:41;15.60;;;7.00;;
28459;SDS011;32528;45.712;9.192;2023-04-06T02:54:44;18.55;;;7.90;;
28459;SDS011;32528;45.712;9.192;2023-04-06T02:56:45;16.90;;;7.45;;
28459;SDS011;32528;45.712;9.192;2023-04-06T02:58:47;19.63;;;7.13;;
28459;SDS011;32528;45.712;9.192;2023-04-06T03:00:48;15.38;;;6.70;;
28459;SDS011;32528;45.712;9.192;2023-04-06T03:02:48;19.23;;;6.47;;
28459;SDS011;32528;45.712;9.192;2023-04-06T03:04:51;10.80;;;5.80;;
28459;SDS011;32528;45.712;9.192;2023-04-06T03:06:59;10.50;;;5.72;;
28459;SDS011;32528;45.712;9.192;2023-04-06T03:09:08;13.65;;;6.40;;
28459;SDS011;32528;45.712;9.192;2023-04-06T03:11:09;11.90;;;5.93;;
28459;SDS011;32528;45.712;9.192;2023-04-06T03:13:14;10.80;;;6.15;;
28459;SDS011;32528;45.712;9.192;2023-04-06T03:15:24;13.13;;;5.88;;
28459;SDS011;32528;45.712;9.192;2023-04-06T03:17:30;13.38;;;6.85;;
28459;SDS011;32528;45.712;9.192;2023-04-06T03:19:35;12.25;;;6.43;;
28459;SDS011;32528;45.712;9.192;2023-04-06T03:21:37;16.00;;;6.78;;
28459;SDS011;32528;45.712;9.192;2023-04-06T03:23:39;11.85;;;6.57;;
28459;SDS011;32528;45.712;9.192;2023-04-06T03:25:40;9.48;;;6.05;;
28459;SDS011;32528;45.712;9.192;2023-04-06T03:27:43;11.85;;;5.30;;
28459;SDS011;32528;45.712;9.192;2023-04-06T03:29:48;10.13;;;5.88;;
28459;SDS011;32528;45.712;9.192;2023-04-06T03:31:55;13.73;;;6.95;;
28459;SDS011;32528;45.712;9.192;2023-04-06T03:34:06;10.88;;;5.85;;
28459;SDS011;32528;45.712;9.192;2023-04-06T03:36:09;12.63;;;6.50;;
28459;SDS011;32528;45.712;9.192;2023-04-06T03:38:14;23.70;;;5.75;;
28459;SDS011;32528;45.712;9.192;2023-04-06T03:40:15;11.63;;;6.18;;
28459;SDS011;32528;45.712;9.192;2023-04-06T03:42:16;15.70;;;6.70;;
28459;SDS011;32528;45.712;9.192;2023-04-06T03:44:24;10.30;;;5.55;;
28459;SDS011;32528;45.712;9.192;2023-04-06T03:46:24;12.95;;;6.07;;
28459;SDS011;32528;45.712;9.192;2023-04-06T03:48:28;14.40;;;5.80;;
28459;SDS011;32528;45.712;9.192;2023-04-06T03:50:29;12.23;;;6.38;;
28459;SDS011;32528;45.712;9.192;2023-04-06T03:52:30;9.05;;;5.65;;
28459;SDS011;32528;45.712;9.192;2023-04-06T03:54:31;14.52;;;6.22;;
28459;SDS011;32528;45.712;9.192;2023-04-06T03:56:33;11.98;;;6.05;;
28459;SDS011;32528;45.712;9.192;2023-04-06T03:58:33;8.20;;;5.10;;
28459;SDS011;32528;45.712;9.192;2023-04-06T04:00:34;9.60;;;5.35;;
28459;SDS011;32528;45.712;9.192;2023-04-06T04:02:35;12.15;;;5.07;;
28459;SDS011;32528;45.712;9.192;2023-04-06T04:04:36;8.55;;;5.13;;
28459;SDS011;32528;45.712;9.192;2023-04-06T04:06:37;10.52;;;5.05;;
28459;SDS011;32528;45.712;9.192;2023-04-06T04:08:41;18.60;;;4.80;;
28459;SDS011;32528;45.712;9.192;2023-04-06T04:10:42;23.90;;;5.38;;
28459;SDS011;32528;45.712;9.192;2023-04-06T04:12:43;17.52;;;5.00;;
28459;SDS011;32528;45.712;9.192;2023-04-06T04:14:44;39.17;;;6.25;;
28459;SDS011;32528;45.712;9.192;2023-04-06T04:16:45;13.70;;;4.70;;
28459;SDS011;32528;45.712;9.192;2023-04-06T04:18:45;12.43;;;5.35;;
28459;SDS011;32528;45.712;9.192;2023-04-06T04:20:48;7.93;;;4.72;;
28459;SDS011;32528;45.712;9.192;2023-04-06T04:22:49;23.15;;;5.28;;
28459;SDS011;32528;45.712;9.192;2023-04-06T04:24:50;13.10;;;4.82;;
28459;SDS011;32528;45.712;9.192;2023-04-06T04:26:51;13.65;;;5.00;;
28459;SDS011;32528;45.712;9.192;2023-04-06T04:28:53;8.77;;;4.90;;
28459;SDS011;32528;45.712;9.192;2023-04-06T04:30:53;8.93;;;4.05;;
28459;SDS011;32528;45.712;9.192;2023-04-06T04:32:55;9.55;;;4.43;;
28459;SDS011;32528;45.712;9.192;2023-04-06T04:34:57;10.27;;;4.63;;
28459;SDS011;32528;45.712;9.192;2023-04-06T04:37:08;9.55;;;4.35;;
28459;SDS011;32528;45.712;9.192;2023-04-06T04:39:20;12.38;;;4.25;;
28459;SDS011;32528;45.712;9.192;2023-04-06T04:41:29;8.73;;;5.22;;
28459;SDS011;32528;45.712;9.192;2023-04-06T04:43:30;15.07;;;6.22;;
28459;SDS011;32528;45.712;9.192;2023-04-06T04:45:33;8.25;;;4.72;;
28459;SDS011;32528;45.712;9.192;2023-04-06T04:47:41;12.85;;;4.75;;
28459;SDS011;32528;45.712;9.192;2023-04-06T04:49:42;8.90;;;4.68;;
28459;SDS011;32528;45.712;9.192;2023-04-06T04:51:45;8.88;;;4.45;;
28459;SDS011;32528;45.712;9.192;2023-04-06T04:53:50;10.07;;;4.97;;
28459;SDS011;32528;45.712;9.192;2023-04-06T04:55:56;9.32;;;4.55;;
28459;SDS011;32528;45.712;9.192;2023-04-06T04:58:00;6.10;;;3.58;;
28459;SDS011;32528;45.712;9.192;2023-04-06T05:00:18;12.35;;;5.78;;
28459;SDS011;32528;45.712;9.192;2023-04-06T05:02:20;8.88;;;4.35;;
28459;SDS011;32528;45.712;9.192;2023-04-06T05:04:32;9.05;;;4.53;;
28459;SDS011;32528;45.712;9.192;2023-04-06T05:06:37;10.43;;;4.28;;
28459;SDS011;32528;45.712;9.192;2023-04-06T05:08:38;17.23;;;4.40;;
28459;SDS011;32528;45.712;9.192;2023-04-06T05:10:39;13.98;;;5.07;;
28459;SDS011;32528;45.712;9.192;2023-04-06T05:12:40;10.27;;;4.05;;
28459;SDS011;32528;45.712;9.192;2023-04-06T05:14:43;14.43;;;4.78;;
28459;SDS011;32528;45.712;9.192;2023-04-06T05:16:48;8.43;;;4.47;;
28459;SDS011;32528;45.712;9.192;2023-04-06T05:18:49;8.77;;;4.72;;
28459;SDS011;32528;45.712;9.192;2023-04-06T05:20:50;11.65;;;5.35;;
28459;SDS011;32528;45.712;9.192;2023-04-06T05:22:54;6.18;;;3.33;;
28459;SDS011;32528;45.712;9.192;2023-04-06T05:24:55;10.70;;;4.10;;
28459;SDS011;32528;45.712;9.192;2023-04-06T05:26:56;10.23;;;4.20;;
28459;SDS011;32528;45.712;9.192;2023-04-06T05:28:58;20.08;;;4.85;;
28459;SDS011;32528;45.712;9.192;2023-04-06T05:31:05;10.27;;;4.88;;
28459;SDS011;32528;45.712;9.192;2023-04-06T05:33:17;20.73;;;7.40;;
28459;SDS011;32528;45.712;9.192;2023-04-06T05:35:40;8.82;;;5.72;;
28459;SDS011;32528;45.712;9.192;2023-04-06T05:37:45;17.45;;;5.88;;
28459;SDS011;32528;45.712;9.192;2023-04-06T05:39:46;18.73;;;8.20;;
28459;SDS011;32528;45.712;9.192;2023-04-06T05:41:48;15.27;;;6.32;;
28459;SDS011;32528;45.712;9.192;2023-04-06T05:43:51;17.95;;;8.00;;
28459;SDS011;32528;45.712;9.192;2023-04-06T05:45:52;19.95;;;9.68;;
28459;SDS011;32528;45.712;9.192;2023-04-06T05:47:53;25.55;;;11.88;;
28459;SDS011;32528;45.712;9.192;2023-04-06T05:50:03;31.85;;;11.07;;
28459;SDS011;32528;45.712;9.192;2023-04-06T05:52:12;24.88;;;9.65;;
28459;SDS011;32528;45.712;9.192;2023-04-06T05:54:15;29.33;;;9.77;;
28459;SDS011;32528;45.712;9.192;2023-04-06T05:56:17;20.67;;;8.82;;
28459;SDS011;32528;45.712;9.192;2023-04-06T05:58:18;13.60;;;8.40;;
28459;SDS011;32528;45.712;9.192;2023-04-06T06:00:20;15.15;;;7.03;;
28459;SDS011;32528;45.712;9.192;2023-04-06T06:02:31;15.98;;;7.80;;
28459;SDS011;32528;45.712;9.192;2023-04-06T06:04:32;21.38;;;7.90;;
28459;SDS011;32528;45.712;9.192;2023-04-06T06:06:33;15.23;;;6.47;;
28459;SDS011;32528;45.712;9.192;2023-04-06T06:09:00;20.00;;;6.95;;
28459;SDS011;32528;45.712;9.192;2023-04-06T06:11:06;24.52;;;7.07;;
28459;SDS011;32528;45.712;9.192;2023-04-06T06:13:07;23.80;;;5.85;;
28459;SDS011;32528;45.712;9.192;2023-04-06T06:15:07;13.63;;;6.07;;
28459;SDS011;32528;45.712;9.192;2023-04-06T06:17:13;11.77;;;4.60;;
28459;SDS011;32528;45.712;9.192;2023-04-06T06:19:18;7.45;;;3.78;;
28459;SDS011;32528;45.712;9.192;2023-04-06T06:21:19;6.60;;;3.88;;
28459;SDS011;32528;45.712;9.192;2023-04-06T06:23:20;39.28;;;6.28;;
28459;SDS011;32528;45.712;9.192;2023-04-06T06:25:23;33.17;;;4.63;;
28459;SDS011;32528;45.712;9.192;2023-04-06T06:27:24;18.90;;;5.35;;
28459;SDS011;32528;45.712;9.192;2023-04-06T06:29:26;20.80;;;4.85;;
28459;SDS011;32528;45.712;9.192;2023-04-06T06:31:27;8.98;;;5.32;;
28459;SDS011;32528;45.712;9.192;2023-04-06T06:33:28;16.08;;;4.85;;
28459;SDS011;32528;45.712;9.192;2023-04-06T06:35:30;15.30;;;4.63;;
28459;SDS011;32528;45.712;9.192;2023-04-06T06:37:37;8.35;;;4.45;;
28459;SDS011;32528;45.712;9.192;2023-04-06T06:39:39;8.52;;;4.25;;
28459;SDS011;32528;45.712;9.192;2023-04-06T06:41:39;7.60;;;3.78;;
28459;SDS011;32528;45.712;9.192;2023-04-06T06:43:41;10.50;;;4.18;;
28459;SDS011;32528;45.712;9.192;2023-04-06T06:45:43;6.72;;;3.40;;
28459;SDS011;32528;45.712;9.192;2023-04-06T06:47:47;15.82;;;3.55;;
28459;SDS011;32528;45.712;9.192;2023-04-06T06:49:47;20.00;;;5.13;;
28459;SDS011;32528;45.712;9.192;2023-04-06T06:51:48;13.68;;;4.68;;
28459;SDS011;32528;45.712;9.192;2023-04-06T06:53:49;13.50;;;6.63;;
28459;SDS011;32528;45.712;9.192;2023-04-06T06:55:50;14.27;;;6.72;;
28459;SDS011;32528;45.712;9.192;2023-04-06T06:57:51;11.63;;;5.90;;
28459;SDS011;32528;45.712;9.192;2023-04-06T06:59:52;8.02;;;4.15;;
28459;SDS011;32528;45.712;9.192;2023-04-06T07:01:54;22.90;;;5.53;;
28459;SDS011;32528;45.712;9.192;2023-04-06T07:03:55;9.52;;;4.43;;
28459;SDS011;32528;45.712;9.192;2023-04-06T07:05:56;15.30;;;4.72;;
28459;SDS011;32528;45.712;9.192;2023-04-06T07:07:58;13.18;;;4.55;;
28459;SDS011;32528;45.712;9.192;2023-04-06T07:10:01;13.32;;;3.95;;
28459;SDS011;32528;45.712;9.192;2023-04-06T07:12:02;10.18;;;4.72;;
28459;SDS011;32528;45.712;9.192;2023-04-06T07:14:03;8.20;;;3.97;;
28459;SDS011;32528;45.712;9.192;2023-04-06T07:16:04;18.00;;;5.30;;
28459;SDS011;32528;45.712;9.192;2023-04-06T07:18:05;18.15;;;3.50;;
28459;SDS011;32528;45.712;9.192;2023-04-06T07:20:06;6.78;;;3.60;;
28459;SDS011;32528;45.712;9.192;2023-04-06T07:22:08;10.82;;;5.03;;
28459;SDS011;32528;45.712;9.192;2023-04-06T07:24:09;6.55;;;2.67;;
28459;SDS011;32528;45.712;9.192;2023-04-06T07:26:10;5.47;;;3.30;;
28459;SDS011;32528;45.712;9.192;2023-04-06T07:28:11;7.30;;;2.80;;
28459;SDS011;32528;45.712;9.192;2023-04-06T07:30:12;8.20;;;3.17;;
28459;SDS011;32528;45.712;9.192;2023-04-06T07:32:13;12.73;;;3.33;;
28459;SDS011;32528;45.712;9.192;2023-04-06T07:34:15;5.82;;;2.70;;
28459;SDS011;32528;45.712;9.192;2023-04-06T07:36:16;7.05;;;2.65;;
28459;SDS011;32528;45.712;9.192;2023-04-06T07:38:17;6.85;;;3.55;;
28459;SDS011;32528;45.712;9.192;2023-04-06T07:40:18;5.88;;;2.83;;
28459;SDS011;32528;45.712;9.192;2023-04-06T07:42:24;11.38;;;3.45;;
28459;SDS011;32528;45.712;9.192;2023-04-06T07:44:24;8.60;;;3.65;;
28459;SDS011;32528;45.712;9.192;2023-04-06T07:46:26;15.75;;;3.72;;
28459;SDS011;32528;45.712;9.192;2023-04-06T07:48:27;7.35;;;3.05;;
28459;SDS011;32528;45.712;9.192;2023-04-06T07:50:28;8.15;;;3.08;;
28459;SDS011;32528;45.712;9.192;2023-04-06T07:52:30;5.55;;;3.08;;
28459;SDS011;32528;45.712;9.192;2023-04-06T07:54:35;11.52;;;3.60;;
28459;SDS011;32528;45.712;9.192;2023-04-06T07:56:35;6.25;;;2.70;;
28459;SDS011;32528;45.712;9.192;2023-04-06T07:58:36;10.48;;;3.40;;
28459;SDS011;32528;45.712;9.192;2023-04-06T08:00:37;7.85;;;4.00;;
28459;SDS011;32528;45.712;9.192;2023-04-06T08:02:38;11.05;;;3.17;;
28459;SDS011;32528;45.712;9.192;2023-04-06T08:04:38;12.13;;;3.35;;
28459;SDS011;32528;45.712;9.192;2023-04-06T08:06:39;6.60;;;3.35;;
28459;SDS011;32528;45.712;9.192;2023-04-06T08:08:41;8.02;;;3.50;;
28459;SDS011;32528;45.712;9.192;2023-04-06T08:10:42;7.53;;;4.18;;
28459;SDS011;32528;45.712;9.192;2023-04-06T08:12:43;7.70;;;3.65;;
28459;SDS011;32528;45.712;9.192;2023-04-06T08:14:44;8.40;;;3.33;;
28459;SDS011;32528;45.712;9.192;2023-04-06T08:16:45;11.95;;;4.78;;
28459;SDS011;32528;45.712;9.192;2023-04-06T08:18:47;10.82;;;3.50;;
28459;SDS011;32528;45.712;9.192;2023-04-06T08:20:47;9.60;;;4.18;;
28459;SDS011;32528;45.712;9.192;2023-04-06T08:22:49;6.40;;;3.40;;
28459;SDS011;32528;45.712;9.192;2023-04-06T08:24:50;16.98;;;3.50;;
28459;SDS011;32528;45.712;9.192;2023-04-06T08:26:51;15.60;;;3.80;;
28459;SDS011;32528;45.712;9.192;2023-04-06T08:28:52;7.95;;;4.03;;
28459;SDS011;32528;45.712;9.192;2023-04-06T08:30:53;5.70;;;3.20;;
28459;SDS011;32528;45.712;9.192;2023-04-06T08:32:54;9.25;;;3.28;;
28459;SDS011;32528;45.712;9.192;2023-04-06T08:34:55;8.07;;;3.70;;
28459;SDS011;32528;45.712;9.192;2023-04-06T08:36:56;15.43;;;4.18;;
28459;SDS011;32528;45.712;9.192;2023-04-06T08:38:57;12.82;;;3.45;;
28459;SDS011;32528;45.712;9.192;2023-04-06T08:40:59;6.82;;;3.75;;
28459;SDS011;32528;45.712;9.192;2023-04-06T08:43:01;11.00;;;4.10;;
28459;SDS011;32528;45.712;9.192;2023-04-06T08:45:08;13.20;;;5.45;;
28459;SDS011;32528;45.712;9.192;2023-04-06T08:47:09;9.15;;;4.75;;
28459;SDS011;32528;45.712;9.192;2023-04-06T08:49:10;12.88;;;4.38;;
28459;SDS011;32528;45.712;9.192;2023-04-06T08:51:12;11.18;;;4.35;;
28459;SDS011;32528;45.712;9.192;2023-04-06T08:53:13;9.32;;;3.88;;
28459;SDS011;32528;45.712;9.192;2023-04-06T08:55:15;17.55;;;4.88;;
28459;SDS011;32528;45.712;9.192;2023-04-06T08:57:16;9.10;;;4.20;;
28459;SDS011;32528;45.712;9.192;2023-04-06T08:59:19;8.85;;;3.75;;
28459;SDS011;32528;45.712;9.192;2023-04-06T09:01:24;10.30;;;3.97;;
28459;SDS011;32528;45.712;9.192;2023-04-06T09:03:28;8.15;;;4.55;;
28459;SDS011;32528;45.712;9.192;2023-04-06T09:05:30;9.68;;;4.70;;
28459;SDS011;32528;45.712;9.192;2023-04-06T09:07:31;11.63;;;4.30;;
28459;SDS011;32528;45.712;9.192;2023-04-06T09:09:32;8.75;;;4.60;;
28459;SDS011;32528;45.712;9.192;2023-04-06T09:11:45;13.98;;;4.20;;
28459;SDS011;32528;45.712;9.192;2023-04-06T09:13:50;12.68;;;4.28;;
28459;SDS011;32528;45.712;9.192;2023-04-06T09:16:01;8.50;;;4.72;;
28459;SDS011;32528;45.712;9.192;2023-04-06T09:18:03;9.15;;;4.90;;
28459;SDS011;32528;45.712;9.192;2023-04-06T09:20:05;9.43;;;4.40;;
28459;SDS011;32528;45.712;9.192;2023-04-06T09:22:07;8.38;;;4.20;;
28459;SDS011;32528;45.712;9.192;2023-04-06T09:24:08;9.45;;;4.88;;
28459;SDS011;32528;45.712;9.192;2023-04-06T09:26:16;9.27;;;4.47;;
28459;SDS011;32528;45.712;9.192;2023-04-06T09:28:17;11.50;;;5.15;;
28459;SDS011;32528;45.712;9.192;2023-04-06T09:30:18;12.07;;;5.05;;
28459;SDS011;32528;45.712;9.192;2023-04-06T09:32:19;8.57;;;4.72;;
28459;SDS011;32528;45.712;9.192;2023-04-06T09:34:21;14.98;;;5.30;;
28459;SDS011;32528;45.712;9.192;2023-04-06T09:36:34;9.23;;;4.55;;
28459;SDS011;32528;45.712;9.192;2023-04-06T09:38:38;11.23;;;5.63;;
28459;SDS011;32528;45.712;9.192;2023-04-06T09:40:50;11.05;;;4.50;;
28459;SDS011;32528;45.712;9.192;2023-04-06T09:42:51;20.80;;;6.55;;
28459;SDS011;32528;45.712;9.192;2023-04-06T09:44:54;19.42;;;7.05;;
28459;SDS011;32528;45.712;9.192;2023-04-06T09:46:54;12.07;;;4.45;;
28459;SDS011;32528;45.712;9.192;2023-04-06T09:48:56;10.77;;;5.28;;
28459;SDS011;32528;45.712;9.192;2023-04-06T09:50:58;19.20;;;5.82;;
28459;SDS011;32528;45.712;9.192;2023-04-06T09:53:03;12.23;;;5.50;;
28459;SDS011;32528;45.712;9.192;2023-04-06T09:55:05;8.60;;;4.95;;
28459;SDS011;32528;45.712;9.192;2023-04-06T09:57:13;12.00;;;6.00;;
28459;SDS011;32528;45.712;9.192;2023-04-06T09:59:25;10.63;;;5.53;;
28459;SDS011;32528;45.712;9.192;2023-04-06T10:01:40;8.75;;;5.10;;
28459;SDS011;32528;45.712;9.192;2023-04-06T10:06:18;9.68;;;4.80;;
28459;SDS011;32528;45.712;9.192;2023-04-06T10:08:22;12.88;;;4.68;;
28459;SDS011;32528;45.712;9.192;2023-04-06T10:10:29;12.30;;;5.32;;
28459;SDS011;32528;45.712;9.192;2023-04-06T10:12:30;11.15;;;5.63;;
28459;SDS011;32528;45.712;9.192;2023-04-06T10:14:33;11.35;;;5.40;;
28459;SDS011;32528;45.712;9.192;2023-04-06T10:16:37;10.00;;;5.55;;
28459;SDS011;32528;45.712;9.192;2023-04-06T10:18:39;10.60;;;5.47;;
28459;SDS011;32528;45.712;9.192;2023-04-06T10:20:50;10.65;;;5.28;;
28459;SDS011;32528;45.712;9.192;2023-04-06T10:23:15;9.45;;;5.35;;
28459;SDS011;32528;45.712;9.192;2023-04-06T10:25:27;21.92;;;5.53;;
28459;SDS011;32528;45.712;9.192;2023-04-06T10:27:32;11.48;;;4.75;;
28459;SDS011;32528;45.712;9.192;2023-04-06T10:29:42;14.00;;;4.97;;
28459;SDS011;32528;45.712;9.192;2023-04-06T10:31:46;11.73;;;5.60;;
28459;SDS011;32528;45.712;9.192;2023-04-06T10:33:56;16.75;;;5.03;;
28459;SDS011;32528;45.712;9.192;2023-04-06T10:35:58;10.48;;;5.53;;
28459;SDS011;32528;45.712;9.192;2023-04-06T10:38:09;18.67;;;6.07;;
28459;SDS011;32528;45.712;9.192;2023-04-06T10:40:19;14.02;;;5.55;;
28459;SDS011;32528;45.712;9.192;2023-04-06T10:42:25;11.20;;;4.43;;
28459;SDS011;32528;45.712;9.192;2023-04-06T10:44:42;11.30;;;4.72;;
28459;SDS011;32528;45.712;9.192;2023-04-06T10:46:52;10.43;;;6.05;;
28459;SDS011;32528;45.712;9.192;2023-04-06T10:48:53;10.07;;;4.85;;
28459;SDS011;32528;45.712;9.192;2023-04-06T10:50:55;13.73;;;6.47;;
28459;SDS011;32528;45.712;9.192;2023-04-06T10:53:00;9.85;;;5.53;;
28459;SDS011;32528;45.712;9.192;2023-04-06T10:55:02;11.82;;;5.68;;
28459;SDS011;32528;45.712;9.192;2023-04-06T10:57:03;16.65;;;6.15;;
28459;SDS011;32528;45.712;9.192;2023-04-06T10:59:05;12.77;;;6.50;;
28459;SDS011;32528;45.712;9.192;2023-04-06T11:01:08;13.05;;;7.13;;
28459;SDS011;32528;45.712;9.192;2023-04-06T11:03:11;11.93;;;5.88;;
28459;SDS011;32528;45.712;9.192;2023-04-06T11:05:14;9.98;;;5.53;;
28459;SDS011;32528;45.712;9.192;2023-04-06T11:07:22;26.02;;;6.72;;
28459;SDS011;32528;45.712;9.192;2023-04-06T11:09:27;13.27;;;5.75;;
28459;SDS011;32528;45.712;9.192;2023-04-06T11:11:29;12.43;;;6.07;;
28459;SDS011;32528;45.712;9.192;2023-04-06T11:13:40;10.90;;;6.05;;
28459;SDS011;32528;45.712;9.192;2023-04-06T11:15:43;10.38;;;5.07;;
28459;SDS011;32528;45.712;9.192;2023-04-06T11:17:43;15.30;;;6.55;;
28459;SDS011;32528;45.712;9.192;2023-04-06T11:19:45;14.98;;;7.00;;
28459;SDS011;32528;45.712;9.192;2023-04-06T11:21:47;12.90;;;6.35;;
28459;SDS011;32528;45.712;9.192;2023-04-06T11:23:49;11.77;;;6.22;;
28459;SDS011;32528;45.712;9.192;2023-04-06T11:25:50;23.88;;;6.78;;
28459;SDS011;32528;45.712;9.192;2023-04-06T11:27:52;14.45;;;7.82;;
28459;SDS011;32528;45.712;9.192;2023-04-06T11:29:52;10.25;;;5.60;;
28459;SDS011;32528;45.712;9.192;2023-04-06T11:31:59;13.25;;;7.10;;
28459;SDS011;32528;45.712;9.192;2023-04-06T11:34:09;22.50;;;7.45;;
28459;SDS011;32528;45.712;9.192;2023-04-06T11:36:10;17.08;;;7.30;;
28459;SDS011;32528;45.712;9.192;2023-04-06T11:38:13;12.38;;;6.72;;
28459;SDS011;32528;45.712;9.192;2023-04-06T11:40:14;12.88;;;7.03;;
28459;SDS011;32528;45.712;9.192;2023-04-06T11:42:21;14.05;;;7.05;;
28459;SDS011;32528;45.712;9.192;2023-04-06T11:44:36;12.75;;;7.50;;
28459;SDS011;32528;45.712;9.192;2023-04-06T11:46:50;27.95;;;7.38;;
28459;SDS011;32528;45.712;9.192;2023-04-06T11:48:52;15.57;;;7.32;;
28459;SDS011;32528;45.712;9.192;2023-04-06T11:51:01;18.35;;;7.88;;
28459;SDS011;32528;45.712;9.192;2023-04-06T11:53:03;16.60;;;6.63;;
28459;SDS011;32528;45.712;9.192;2023-04-06T11:57:13;19.42;;;8.50;;
28459;SDS011;32528;45.712;9.192;2023-04-06T11:59:14;11.25;;;6.18;;
28459;SDS011;32528;45.712;9.192;2023-04-06T12:01:15;13.63;;;7.45;;
28459;SDS011;32528;45.712;9.192;2023-04-06T12:03:16;15.98;;;7.97;;
28459;SDS011;32528;45.712;9.192;2023-04-06T12:05:16;14.73;;;7.90;;
28459;SDS011;32528;45.712;9.192;2023-04-06T12:07:18;14.60;;;6.95;;
28459;SDS011;32528;45.712;9.192;2023-04-06T12:09:19;11.32;;;5.75;;
28459;SDS011;32528;45.712;9.192;2023-04-06T12:11:20;13.23;;;6.85;;
28459;SDS011;32528;45.712;9.192;2023-04-06T12:13:21;14.45;;;7.18;;
28459;SDS011;32528;45.712;9.192;2023-04-06T12:15:22;14.70;;;8.25;;
28459;SDS011;32528;45.712;9.192;2023-04-06T12:17:23;19.00;;;7.97;;
28459;SDS011;32528;45.712;9.192;2023-04-06T12:19:25;18.73;;;8.40;;
28459;SDS011;32528;45.712;9.192;2023-04-06T12:21:26;11.65;;;7.10;;
28459;SDS011;32528;45.712;9.192;2023-04-06T12:23:28;15.68;;;8.85;;
28459;SDS011;32528;45.712;9.192;2023-04-06T12:25:29;13.75;;;8.48;;
28459;SDS011;32528;45.712;9.192;2023-04-06T12:27:30;11.32;;;6.85;;
28459;SDS011;32528;45.712;9.192;2023-04-06T12:29:31;17.02;;;9.48;;